Search for airport 
image banner adimage banner adimage banner ad
image banner ad

SBPB - Prefeito Doutor João Silva Filho Airport

Situé à Parnaíba, Brazil

ICAO - SBPB, IATA - PHB

Données fournies par Airmate  

Information générale

Coordonnées: S2°53'38" W41°43'49"
Élévation : 16 feet MSL.
Variation magnétique : -20° East
Voir autres Aéroports à Piauí

Données opérationnelles

Special qualification required
Heure actuelle UTC:
Heure actuelle locale:
Météo
TAF: TAF SBPB 110328Z 1106/1118 12010KT 9999 SCT020 TN32/1114Z TX33/1117Z BECMG 1116/1118 06013KT 4500 TSRA BKN015 FEW025CB RMK PHQ
Voir NOTAMs / SUP AIP / TFR affectant cet aéroport [VIEW]
Fréquences de communication: [VIEW]

Pistes:

Coordonnées de l'aéroport

Adresse: Parnaíba Brazil

Vue satellite de SBPB